sensor_id;sensor_type;location;lat;lon;timestamp;pressure;altitude;pressure_sealevel;temperature;humidity
70971;BME280;58632;51.718;19.446;2022-07-01T00:00:12;99339.78;;;21.21;67.81
70971;BME280;58632;51.718;19.446;2022-07-01T00:02:40;99339.22;;;21.18;67.89
70971;BME280;58632;51.718;19.446;2022-07-01T00:05:08;99340.22;;;21.16;67.77
70971;BME280;58632;51.718;19.446;2022-07-01T00:07:34;99338.42;;;21.18;67.76
70971;BME280;58632;51.718;19.446;2022-07-01T00:10:00;99343.17;;;21.21;67.48
70971;BME280;58632;51.718;19.446;2022-07-01T00:12:26;99338.39;;;21.25;67.02
70971;BME280;58632;51.718;19.446;2022-07-01T00:14:52;99339.36;;;21.33;66.43
70971;BME280;58632;51.718;19.446;2022-07-01T00:17:18;99330.38;;;21.41;66.24
70971;BME280;58632;51.718;19.446;2022-07-01T00:19:44;99320.42;;;21.44;66.22
70971;BME280;58632;51.718;19.446;2022-07-01T00:22:11;99321.80;;;21.47;66.26
70971;BME280;58632;51.718;19.446;2022-07-01T00:24:37;99323.55;;;21.53;65.63
70971;BME280;58632;51.718;19.446;2022-07-01T00:27:04;99319.34;;;21.56;65.36
70971;BME280;58632;51.718;19.446;2022-07-01T00:29:30;99320.90;;;21.61;65.00
70971;BME280;58632;51.718;19.446;2022-07-01T00:31:58;99315.48;;;21.69;64.70
70971;BME280;58632;51.718;19.446;2022-07-01T00:34:24;99322.02;;;21.74;64.38
70971;BME280;58632;51.718;19.446;2022-07-01T00:36:50;99316.61;;;21.79;64.11
70971;BME280;58632;51.718;19.446;2022-07-01T00:39:16;99311.81;;;21.83;63.86
70971;BME280;58632;51.718;19.446;2022-07-01T00:41:43;99315.55;;;21.88;63.87
70971;BME280;58632;51.718;19.446;2022-07-01T00:44:19;99319.51;;;21.91;63.80
70971;BME280;58632;51.718;19.446;2022-07-01T00:46:47;99310.97;;;21.90;63.77
70971;BME280;58632;51.718;19.446;2022-07-01T00:49:16;99315.48;;;21.95;63.80
70971;BME280;58632;51.718;19.446;2022-07-01T00:51:42;99309.09;;;21.98;63.72
70971;BME280;58632;51.718;19.446;2022-07-01T00:54:10;99306.50;;;21.99;63.68
70971;BME280;58632;51.718;19.446;2022-07-01T00:56:36;99308.13;;;21.97;63.80
70971;BME280;58632;51.718;19.446;2022-07-01T00:59:02;99304.73;;;21.97;63.84
70971;BME280;58632;51.718;19.446;2022-07-01T01:01:28;99307.08;;;21.99;63.76
70971;BME280;58632;51.718;19.446;2022-07-01T01:03:55;99310.47;;;22.02;63.74
70971;BME280;58632;51.718;19.446;2022-07-01T01:06:22;99305.85;;;22.04;63.65
70971;BME280;58632;51.718;19.446;2022-07-01T01:08:48;99299.66;;;22.08;63.49
70971;BME280;58632;51.718;19.446;2022-07-01T01:11:16;99299.81;;;22.12;63.37
70971;BME280;58632;51.718;19.446;2022-07-01T01:13:43;99302.20;;;22.14;63.30
70971;BME280;58632;51.718;19.446;2022-07-01T01:16:22;99296.80;;;22.15;63.05
70971;BME280;58632;51.718;19.446;2022-07-01T01:18:49;99293.17;;;22.18;62.88
70971;BME280;58632;51.718;19.446;2022-07-01T01:21:15;99290.77;;;22.20;62.82
70971;BME280;58632;51.718;19.446;2022-07-01T01:23:42;99286.41;;;22.19;62.75
70971;BME280;58632;51.718;19.446;2022-07-01T01:26:18;99289.22;;;22.15;62.77
70971;BME280;58632;51.718;19.446;2022-07-01T01:28:48;99286.43;;;22.15;62.68
70971;BME280;58632;51.718;19.446;2022-07-01T01:31:16;99286.83;;;22.21;62.45
70971;BME280;58632;51.718;19.446;2022-07-01T01:33:44;99286.98;;;22.26;62.36
70971;BME280;58632;51.718;19.446;2022-07-01T01:36:11;99284.37;;;22.27;62.21
70971;BME280;58632;51.718;19.446;2022-07-01T01:38:37;99289.55;;;22.28;62.18
70971;BME280;58632;51.718;19.446;2022-07-01T01:41:04;99288.33;;;22.29;62.06
70971;BME280;58632;51.718;19.446;2022-07-01T01:43:31;99292.72;;;22.30;61.99
70971;BME280;58632;51.718;19.446;2022-07-01T01:46:01;99294.11;;;22.30;61.94
70971;BME280;58632;51.718;19.446;2022-07-01T01:48:29;99294.44;;;22.36;61.79
70971;BME280;58632;51.718;19.446;2022-07-01T01:50:57;99292.82;;;22.38;61.69
70971;BME280;58632;51.718;19.446;2022-07-01T01:53:23;99301.39;;;22.39;61.60
70971;BME280;58632;51.718;19.446;2022-07-01T01:55:50;99291.80;;;22.40;61.50
70971;BME280;58632;51.718;19.446;2022-07-01T01:58:16;99293.02;;;22.39;61.54
70971;BME280;58632;51.718;19.446;2022-07-01T02:00:43;99290.41;;;22.40;61.50
70971;BME280;58632;51.718;19.446;2022-07-01T02:03:09;99283.27;;;22.39;61.51
70971;BME280;58632;51.718;19.446;2022-07-01T02:05:36;99278.88;;;22.38;61.53
70971;BME280;58632;51.718;19.446;2022-07-01T02:08:03;99291.20;;;22.41;61.34
70971;BME280;58632;51.718;19.446;2022-07-01T02:10:29;99287.77;;;22.45;61.18
70971;BME280;58632;51.718;19.446;2022-07-01T02:12:55;99288.56;;;22.46;61.13
70971;BME280;58632;51.718;19.446;2022-07-01T02:15:21;99295.36;;;22.45;61.17
70971;BME280;58632;51.718;19.446;2022-07-01T02:17:47;99294.98;;;22.43;61.13
70971;BME280;58632;51.718;19.446;2022-07-01T02:20:14;99294.59;;;22.40;61.09
70971;BME280;58632;51.718;19.446;2022-07-01T02:22:40;99298.95;;;22.41;60.96
70971;BME280;58632;51.718;19.446;2022-07-01T02:25:08;99303.75;;;22.41;60.91
70971;BME280;58632;51.718;19.446;2022-07-01T02:27:35;99295.84;;;22.36;60.75
70971;BME280;58632;51.718;19.446;2022-07-01T02:30:04;99298.61;;;22.39;60.57
70971;BME280;58632;51.718;19.446;2022-07-01T02:32:31;99294.77;;;22.41;60.41
70971;BME280;58632;51.718;19.446;2022-07-01T02:34:58;99290.97;;;22.44;60.36
70971;BME280;58632;51.718;19.446;2022-07-01T02:37:24;99290.97;;;22.44;60.36
70971;BME280;58632;51.718;19.446;2022-07-01T02:39:50;99285.39;;;22.44;60.22
70971;BME280;58632;51.718;19.446;2022-07-01T02:42:17;99289.95;;;22.46;60.29
70971;BME280;58632;51.718;19.446;2022-07-01T02:44:49;99287.55;;;22.48;60.05
70971;BME280;58632;51.718;19.446;2022-07-01T02:47:15;99288.53;;;22.49;60.12
70971;BME280;58632;51.718;19.446;2022-07-01T02:49:42;99287.47;;;22.55;60.19
70971;BME280;58632;51.718;19.446;2022-07-01T02:52:09;99288.23;;;22.59;60.16
70971;BME280;58632;51.718;19.446;2022-07-01T02:54:36;99289.42;;;22.58;60.11
70971;BME280;58632;51.718;19.446;2022-07-01T02:57:03;99290.41;;;22.59;59.96
70971;BME280;58632;51.718;19.446;2022-07-01T02:59:30;99290.38;;;22.63;59.96
70971;BME280;58632;51.718;19.446;2022-07-01T03:01:56;99298.70;;;22.67;59.93
70971;BME280;58632;51.718;19.446;2022-07-01T03:04:23;99293.50;;;22.69;59.74
70971;BME280;58632;51.718;19.446;2022-07-01T03:06:49;99294.84;;;22.72;59.75
70971;BME280;58632;51.718;19.446;2022-07-01T03:09:15;99299.37;;;22.78;59.60
70971;BME280;58632;51.718;19.446;2022-07-01T03:11:42;99298.86;;;22.87;59.33
70971;BME280;58632;51.718;19.446;2022-07-01T03:14:07;99291.44;;;22.92;59.17
70971;BME280;58632;51.718;19.446;2022-07-01T03:16:33;99284.60;;;22.96;59.07
70971;BME280;58632;51.718;19.446;2022-07-01T03:19:00;99281.17;;;23.00;58.98
70971;BME280;58632;51.718;19.446;2022-07-01T03:21:27;99284.10;;;23.05;59.02
70971;BME280;58632;51.718;19.446;2022-07-01T03:23:53;99286.42;;;23.10;58.70
70971;BME280;58632;51.718;19.446;2022-07-01T03:26:19;99285.98;;;23.15;58.65
70971;BME280;58632;51.718;19.446;2022-07-01T03:28:47;99290.08;;;23.22;58.53
70971;BME280;58632;51.718;19.446;2022-07-01T03:31:13;99286.36;;;23.29;58.42
70971;BME280;58632;51.718;19.446;2022-07-01T03:33:39;99290.66;;;23.37;58.36
70971;BME280;58632;51.718;19.446;2022-07-01T03:36:05;99294.70;;;23.48;57.61
70971;BME280;58632;51.718;19.446;2022-07-01T03:38:32;99284.98;;;23.56;57.53
70971;BME280;58632;51.718;19.446;2022-07-01T03:40:58;99287.74;;;23.60;57.14
70971;BME280;58632;51.718;19.446;2022-07-01T03:43:24;99285.66;;;23.64;57.08
70971;BME280;58632;51.718;19.446;2022-07-01T03:45:50;99286.34;;;23.72;56.78
70971;BME280;58632;51.718;19.446;2022-07-01T03:48:16;99280.86;;;23.80;57.06
70971;BME280;58632;51.718;19.446;2022-07-01T03:50:42;99283.17;;;23.85;56.28
70971;BME280;58632;51.718;19.446;2022-07-01T03:53:08;99275.52;;;23.89;56.42
70971;BME280;58632;51.718;19.446;2022-07-01T03:55:53;99277.34;;;23.99;55.87
70971;BME280;58632;51.718;19.446;2022-07-01T03:58:19;99269.98;;;24.09;55.92
70971;BME280;58632;51.718;19.446;2022-07-01T04:00:45;99269.60;;;24.19;55.52
70971;BME280;58632;51.718;19.446;2022-07-01T04:03:11;99267.03;;;24.28;55.75
70971;BME280;58632;51.718;19.446;2022-07-01T04:05:38;99271.10;;;24.35;54.95
70971;BME280;58632;51.718;19.446;2022-07-01T04:08:06;99261.79;;;24.42;55.00
70971;BME280;58632;51.718;19.446;2022-07-01T04:10:34;99261.06;;;24.49;54.48
70971;BME280;58632;51.718;19.446;2022-07-01T04:13:01;99267.34;;;24.57;54.45
70971;BME280;58632;51.718;19.446;2022-07-01T04:15:28;99255.52;;;24.58;54.42
70971;BME280;58632;51.718;19.446;2022-07-01T04:17:55;99270.10;;;24.69;53.99
70971;BME280;58632;51.718;19.446;2022-07-01T04:20:21;99265.50;;;24.79;53.67
70971;BME280;58632;51.718;19.446;2022-07-01T04:22:47;99263.70;;;24.88;53.69
70971;BME280;58632;51.718;19.446;2022-07-01T04:25:14;99264.38;;;25.04;53.08
70971;BME280;58632;51.718;19.446;2022-07-01T04:27:40;99266.21;;;25.39;52.82
70971;BME280;58632;51.718;19.446;2022-07-01T04:30:08;99265.09;;;26.64;49.73
70971;BME280;58632;51.718;19.446;2022-07-01T04:32:35;99264.73;;;27.76;48.62
70971;BME280;58632;51.718;19.446;2022-07-01T04:35:01;99257.17;;;28.68;46.02
70971;BME280;58632;51.718;19.446;2022-07-01T04:37:30;99263.29;;;29.56;44.58
70971;BME280;58632;51.718;19.446;2022-07-01T04:39:56;99252.66;;;30.37;43.11
70971;BME280;58632;51.718;19.446;2022-07-01T04:42:23;99251.79;;;31.06;42.16
70971;BME280;58632;51.718;19.446;2022-07-01T04:44:49;99250.91;;;31.76;40.89
70971;BME280;58632;51.718;19.446;2022-07-01T04:47:15;99252.91;;;32.47;38.22
70971;BME280;58632;51.718;19.446;2022-07-01T04:49:41;99249.09;;;33.04;37.91
70971;BME280;58632;51.718;19.446;2022-07-01T04:52:07;99247.61;;;33.49;36.21
70971;BME280;58632;51.718;19.446;2022-07-01T04:54:34;99237.56;;;33.83;36.35
70971;BME280;58632;51.718;19.446;2022-07-01T04:57:01;99240.75;;;34.32;34.74
70971;BME280;58632;51.718;19.446;2022-07-01T04:59:27;99247.22;;;34.79;33.74
70971;BME280;58632;51.718;19.446;2022-07-01T05:01:54;99246.37;;;35.25;34.20
70971;BME280;58632;51.718;19.446;2022-07-01T05:04:20;99237.86;;;35.63;31.92
70971;BME280;58632;51.718;19.446;2022-07-01T05:06:46;99245.66;;;35.73;32.41
70971;BME280;58632;51.718;19.446;2022-07-01T05:09:13;99244.64;;;36.25;31.62
70971;BME280;58632;51.718;19.446;2022-07-01T05:11:39;99237.33;;;36.57;31.54
70971;BME280;58632;51.718;19.446;2022-07-01T05:14:07;99241.41;;;36.77;30.96
70971;BME280;58632;51.718;19.446;2022-07-01T05:16:34;99242.34;;;37.41;29.64
70971;BME280;58632;51.718;19.446;2022-07-01T05:19:01;99242.34;;;37.41;29.64
70971;BME280;58632;51.718;19.446;2022-07-01T05:21:47;99235.27;;;37.81;29.57
70971;BME280;58632;51.718;19.446;2022-07-01T05:24:28;99233.86;;;38.16;28.74
70971;BME280;58632;51.718;19.446;2022-07-01T05:26:58;99234.35;;;37.85;29.07
70971;BME280;58632;51.718;19.446;2022-07-01T05:29:27;99233.18;;;37.87;29.03
70971;BME280;58632;51.718;19.446;2022-07-01T05:31:54;99234.02;;;38.11;29.03
70971;BME280;58632;51.718;19.446;2022-07-01T05:34:20;99233.20;;;38.46;29.06
70971;BME280;58632;51.718;19.446;2022-07-01T05:36:47;99229.70;;;38.64;28.41
70971;BME280;58632;51.718;19.446;2022-07-01T05:39:13;99234.66;;;38.64;27.95
70971;BME280;58632;51.718;19.446;2022-07-01T05:41:39;99235.14;;;38.91;27.86
70971;BME280;58632;51.718;19.446;2022-07-01T05:44:05;99240.46;;;39.24;27.68
70971;BME280;58632;51.718;19.446;2022-07-01T05:46:32;99234.11;;;39.19;26.97
70971;BME280;58632;51.718;19.446;2022-07-01T05:48:58;99237.59;;;38.88;28.19
70971;BME280;58632;51.718;19.446;2022-07-01T05:51:24;99237.14;;;39.14;27.54
70971;BME280;58632;51.718;19.446;2022-07-01T05:53:50;99232.97;;;39.03;27.84
70971;BME280;58632;51.718;19.446;2022-07-01T05:56:16;99238.14;;;39.05;26.71
70971;BME280;58632;51.718;19.446;2022-07-01T05:58:43;99238.77;;;38.92;27.17
70971;BME280;58632;51.718;19.446;2022-07-01T06:01:09;99234.25;;;38.66;27.33
70971;BME280;58632;51.718;19.446;2022-07-01T06:03:36;99234.88;;;38.48;27.98
70971;BME280;58632;51.718;19.446;2022-07-01T06:06:03;99233.70;;;38.50;28.41
70971;BME280;58632;51.718;19.446;2022-07-01T06:08:29;99232.75;;;38.30;27.93
70971;BME280;58632;51.718;19.446;2022-07-01T06:10:56;99239.11;;;38.06;28.72
70971;BME280;58632;51.718;19.446;2022-07-01T06:13:22;99234.97;;;38.02;28.93
70971;BME280;58632;51.718;19.446;2022-07-01T06:15:48;99241.46;;;37.97;29.21
70971;BME280;58632;51.718;19.446;2022-07-01T06:18:15;99235.95;;;37.69;29.44
70971;BME280;58632;51.718;19.446;2022-07-01T06:20:41;99235.45;;;37.60;29.42
70971;BME280;58632;51.718;19.446;2022-07-01T06:23:07;99232.12;;;37.22;29.67
70971;BME280;58632;51.718;19.446;2022-07-01T06:25:33;99232.52;;;37.19;30.22
70971;BME280;58632;51.718;19.446;2022-07-01T06:28:00;99240.39;;;36.86;30.59
70971;BME280;58632;51.718;19.446;2022-07-01T06:30:26;99244.67;;;36.86;31.30
70971;BME280;58632;51.718;19.446;2022-07-01T06:32:52;99248.30;;;36.86;31.45
70971;BME280;58632;51.718;19.446;2022-07-01T06:35:18;99245.98;;;37.02;30.36
70971;BME280;58632;51.718;19.446;2022-07-01T06:37:44;99244.53;;;36.74;31.41
70971;BME280;58632;51.718;19.446;2022-07-01T06:40:10;99241.78;;;36.63;32.13
70971;BME280;58632;51.718;19.446;2022-07-01T06:42:36;99239.75;;;36.37;31.99
70971;BME280;58632;51.718;19.446;2022-07-01T06:45:03;99228.73;;;36.07;32.91
70971;BME280;58632;51.718;19.446;2022-07-01T06:47:31;99233.08;;;36.18;33.45
70971;BME280;58632;51.718;19.446;2022-07-01T06:49:57;99233.27;;;36.09;33.70
70971;BME280;58632;51.718;19.446;2022-07-01T06:52:23;99229.96;;;35.89;33.10
70971;BME280;58632;51.718;19.446;2022-07-01T06:54:49;99225.36;;;35.60;33.17
70971;BME280;58632;51.718;19.446;2022-07-01T06:57:15;99232.38;;;35.43;34.54
70971;BME280;58632;51.718;19.446;2022-07-01T06:59:44;99234.53;;;35.54;34.26
70971;BME280;58632;51.718;19.446;2022-07-01T07:02:10;99231.23;;;35.29;32.76
70971;BME280;58632;51.718;19.446;2022-07-01T07:04:36;99221.00;;;34.95;35.35
70971;BME280;58632;51.718;19.446;2022-07-01T07:07:02;99230.83;;;34.94;34.58
70971;BME280;58632;51.718;19.446;2022-07-01T07:09:29;99228.52;;;34.98;34.70
70971;BME280;58632;51.718;19.446;2022-07-01T07:11:55;99223.56;;;34.93;34.72
70971;BME280;58632;51.718;19.446;2022-07-01T07:14:21;99222.31;;;34.84;36.43
70971;BME280;58632;51.718;19.446;2022-07-01T07:16:47;99229.08;;;35.03;35.54
70971;BME280;58632;51.718;19.446;2022-07-01T07:19:13;99228.92;;;35.12;36.56
70971;BME280;58632;51.718;19.446;2022-07-01T07:21:40;99237.14;;;34.94;34.98
70971;BME280;58632;51.718;19.446;2022-07-01T07:24:06;99238.65;;;34.73;35.65
70971;BME280;58632;51.718;19.446;2022-07-01T07:26:32;99235.25;;;34.49;35.75
70971;BME280;58632;51.718;19.446;2022-07-01T07:28:59;99230.55;;;34.20;36.10
70971;BME280;58632;51.718;19.446;2022-07-01T07:31:25;99226.08;;;34.23;36.61
70971;BME280;58632;51.718;19.446;2022-07-01T07:33:51;99224.81;;;34.14;36.72
70971;BME280;58632;51.718;19.446;2022-07-01T07:36:17;99221.87;;;33.98;37.08
70971;BME280;58632;51.718;19.446;2022-07-01T07:38:43;99222.52;;;33.98;37.58
70971;BME280;58632;51.718;19.446;2022-07-01T07:41:09;99224.48;;;34.02;36.92
70971;BME280;58632;51.718;19.446;2022-07-01T07:43:36;99220.23;;;33.91;37.56
70971;BME280;58632;51.718;19.446;2022-07-01T07:46:03;99222.73;;;34.04;38.26
70971;BME280;58632;51.718;19.446;2022-07-01T07:48:30;99231.67;;;34.07;37.56
70971;BME280;58632;51.718;19.446;2022-07-01T07:50:56;99231.27;;;34.14;36.98
70971;BME280;58632;51.718;19.446;2022-07-01T07:53:22;99233.10;;;34.18;37.58
70971;BME280;58632;51.718;19.446;2022-07-01T07:55:48;99234.38;;;34.27;36.69
70971;BME280;58632;51.718;19.446;2022-07-01T07:58:14;99237.63;;;34.40;36.89
70971;BME280;58632;51.718;19.446;2022-07-01T08:00:40;99235.69;;;34.42;35.71
70971;BME280;58632;51.718;19.446;2022-07-01T08:03:06;99234.34;;;34.37;36.97
70971;BME280;58632;51.718;19.446;2022-07-01T08:05:33;99237.73;;;34.51;36.92
70971;BME280;58632;51.718;19.446;2022-07-01T08:07:59;99242.64;;;34.51;36.57
70971;BME280;58632;51.718;19.446;2022-07-01T08:10:25;99236.74;;;34.65;37.31
70971;BME280;58632;51.718;19.446;2022-07-01T08:12:51;99248.52;;;34.78;37.96
70971;BME280;58632;51.718;19.446;2022-07-01T08:15:17;99244.61;;;34.91;36.57
70971;BME280;58632;51.718;19.446;2022-07-01T08:17:44;99237.94;;;34.94;35.93
70971;BME280;58632;51.718;19.446;2022-07-01T08:20:10;99251.47;;;35.15;36.50
70971;BME280;58632;51.718;19.446;2022-07-01T08:22:37;99249.15;;;35.35;35.87
70971;BME280;58632;51.718;19.446;2022-07-01T08:25:04;99248.84;;;35.12;36.20
70971;BME280;58632;51.718;19.446;2022-07-01T08:27:30;99247.75;;;35.09;36.56
70971;BME280;58632;51.718;19.446;2022-07-01T08:29:57;99240.30;;;35.12;36.72
70971;BME280;58632;51.718;19.446;2022-07-01T08:32:23;99245.25;;;35.17;37.12
70971;BME280;58632;51.718;19.446;2022-07-01T08:34:51;99236.03;;;35.12;36.17
70971;BME280;58632;51.718;19.446;2022-07-01T08:37:17;99237.77;;;35.04;35.81
70971;BME280;58632;51.718;19.446;2022-07-01T08:39:43;99237.39;;;35.06;38.18
70971;BME280;58632;51.718;19.446;2022-07-01T08:42:09;99233.47;;;35.14;37.54
70971;BME280;58632;51.718;19.446;2022-07-01T08:44:35;99221.03;;;35.11;36.40
70971;BME280;58632;51.718;19.446;2022-07-01T08:47:02;99224.53;;;35.00;35.31
70971;BME280;58632;51.718;19.446;2022-07-01T08:49:30;99222.59;;;34.86;36.70
70971;BME280;58632;51.718;19.446;2022-07-01T08:51:57;99220.36;;;34.80;37.63
70971;BME280;58632;51.718;19.446;2022-07-01T08:54:23;99219.80;;;34.76;37.09
70971;BME280;58632;51.718;19.446;2022-07-01T08:56:50;99217.56;;;34.86;37.53
70971;BME280;58632;51.718;19.446;2022-07-01T08:59:25;99219.36;;;34.99;37.29
70971;BME280;58632;51.718;19.446;2022-07-01T09:02:01;99217.95;;;35.15;37.56
70971;BME280;58632;51.718;19.446;2022-07-01T09:04:32;99215.34;;;35.27;36.11
70971;BME280;58632;51.718;19.446;2022-07-01T09:07:03;99226.30;;;35.24;37.32
70971;BME280;58632;51.718;19.446;2022-07-01T09:09:34;99228.15;;;35.27;35.58
70971;BME280;58632;51.718;19.446;2022-07-01T09:12:04;99231.80;;;35.17;37.25
70971;BME280;58632;51.718;19.446;2022-07-01T09:14:35;99224.06;;;35.18;37.67
70971;BME280;58632;51.718;19.446;2022-07-01T09:17:03;99225.37;;;35.07;36.24
70971;BME280;58632;51.718;19.446;2022-07-01T09:19:34;99228.62;;;35.10;36.74
70971;BME280;58632;51.718;19.446;2022-07-01T09:22:02;99228.02;;;35.00;37.21
70971;BME280;58632;51.718;19.446;2022-07-01T09:24:36;99227.66;;;35.13;36.50
70971;BME280;58632;51.718;19.446;2022-07-01T09:29:36;99217.91;;;35.25;37.32
70971;BME280;58632;51.718;19.446;2022-07-01T09:32:06;99220.51;;;35.29;35.35
70971;BME280;58632;51.718;19.446;2022-07-01T09:34:35;99226.08;;;35.28;36.46
70971;BME280;58632;51.718;19.446;2022-07-01T09:37:13;99221.80;;;35.28;36.83
70971;BME280;58632;51.718;19.446;2022-07-01T09:39:46;99226.84;;;35.44;36.73
70971;BME280;58632;51.718;19.446;2022-07-01T09:42:11;99218.44;;;35.29;36.03
70971;BME280;58632;51.718;19.446;2022-07-01T09:44:58;99216.39;;;35.30;36.21
70971;BME280;58632;51.718;19.446;2022-07-01T09:47:29;99219.95;;;35.25;35.75
70971;BME280;58632;51.718;19.446;2022-07-01T09:49:57;99215.92;;;35.37;37.22
70971;BME280;58632;51.718;19.446;2022-07-01T09:52:24;99221.14;;;35.44;35.81
70971;BME280;58632;51.718;19.446;2022-07-01T09:54:51;99216.63;;;35.48;36.04
70971;BME280;58632;51.718;19.446;2022-07-01T09:57:20;99216.14;;;35.55;36.56
70971;BME280;58632;51.718;19.446;2022-07-01T09:59:48;99210.18;;;35.53;35.08
70971;BME280;58632;51.718;19.446;2022-07-01T10:02:17;99213.00;;;35.47;34.44
70971;BME280;58632;51.718;19.446;2022-07-01T10:04:51;99215.83;;;35.41;34.65
70971;BME280;58632;51.718;19.446;2022-07-01T10:07:52;99213.97;;;35.38;36.50
70971;BME280;58632;51.718;19.446;2022-07-01T10:10:38;99208.34;;;35.44;36.49
70971;BME280;58632;51.718;19.446;2022-07-01T10:13:21;99209.51;;;35.48;36.48
70971;BME280;58632;51.718;19.446;2022-07-01T10:15:49;99208.28;;;35.60;35.76
70971;BME280;58632;51.718;19.446;2022-07-01T10:18:21;99203.98;;;35.70;35.36
70971;BME280;58632;51.718;19.446;2022-07-01T10:20:50;99200.09;;;35.68;34.66
70971;BME280;58632;51.718;19.446;2022-07-01T10:23:20;99211.22;;;35.71;35.74
70971;BME280;58632;51.718;19.446;2022-07-01T10:25:50;99203.77;;;35.79;35.87
70971;BME280;58632;51.718;19.446;2022-07-01T10:28:24;99193.70;;;35.84;37.57
70971;BME280;58632;51.718;19.446;2022-07-01T10:31:11;99192.19;;;36.00;35.52
70971;BME280;58632;51.718;19.446;2022-07-01T10:36:27;99196.81;;;36.19;34.58
70971;BME280;58632;51.718;19.446;2022-07-01T10:39:08;99191.30;;;36.31;35.19
70971;BME280;58632;51.718;19.446;2022-07-01T10:44:15;99189.36;;;36.38;33.90
70971;BME280;58632;51.718;19.446;2022-07-01T10:52:14;99182.09;;;36.37;34.54
70971;BME280;58632;51.718;19.446;2022-07-01T10:59:58;99174.48;;;36.50;32.93
70971;BME280;58632;51.718;19.446;2022-07-01T11:02:33;99181.09;;;36.57;34.57
70971;BME280;58632;51.718;19.446;2022-07-01T11:05:09;99169.29;;;36.49;33.02
70971;BME280;58632;51.718;19.446;2022-07-01T11:07:39;99162.57;;;36.57;33.05
70971;BME280;58632;51.718;19.446;2022-07-01T11:10:12;99162.06;;;36.59;31.12
70971;BME280;58632;51.718;19.446;2022-07-01T11:12:42;99157.78;;;36.59;31.27
70971;BME280;58632;51.718;19.446;2022-07-01T11:15:15;99149.11;;;36.58;31.36
70971;BME280;58632;51.718;19.446;2022-07-01T11:17:46;99141.19;;;36.57;30.22
70971;BME280;58632;51.718;19.446;2022-07-01T11:20:13;99151.78;;;36.40;27.24
70971;BME280;58632;51.718;19.446;2022-07-01T11:22:40;99151.63;;;36.22;29.60
70971;BME280;58632;51.718;19.446;2022-07-01T11:25:09;99144.24;;;36.25;29.09
70971;BME280;58632;51.718;19.446;2022-07-01T11:27:37;99141.42;;;36.31;29.80
70971;BME280;58632;51.718;19.446;2022-07-01T11:30:07;99142.84;;;36.37;28.33
70971;BME280;58632;51.718;19.446;2022-07-01T11:32:45;99135.83;;;36.38;27.91
70971;BME280;58632;51.718;19.446;2022-07-01T11:35:20;99128.56;;;36.25;28.95
70971;BME280;58632;51.718;19.446;2022-07-01T11:38:18;99119.25;;;36.25;27.60
70971;BME280;58632;51.718;19.446;2022-07-01T11:41:07;99123.53;;;36.42;29.09
70971;BME280;58632;51.718;19.446;2022-07-01T11:43:39;99118.75;;;36.49;28.73
70971;BME280;58632;51.718;19.446;2022-07-01T11:46:07;99108.24;;;36.45;28.79
70971;BME280;58632;51.718;19.446;2022-07-01T11:48:46;99099.58;;;36.55;29.04
70971;BME280;58632;51.718;19.446;2022-07-01T11:51:20;99098.95;;;36.61;29.04
70971;BME280;58632;51.718;19.446;2022-07-01T11:53:50;99093.24;;;36.61;27.96
70971;BME280;58632;51.718;19.446;2022-07-01T11:56:36;99085.33;;;36.55;27.01
70971;BME280;58632;51.718;19.446;2022-07-01T11:59:05;99080.52;;;36.57;27.53
70971;BME280;58632;51.718;19.446;2022-07-01T12:01:33;99086.78;;;36.66;28.89
70971;BME280;58632;51.718;19.446;2022-07-01T12:04:03;99083.28;;;36.67;26.92
70971;BME280;58632;51.718;19.446;2022-07-01T12:06:33;99089.73;;;36.73;28.59
70971;BME280;58632;51.718;19.446;2022-07-01T12:09:03;99074.72;;;36.67;26.39
70971;BME280;58632;51.718;19.446;2022-07-01T12:11:30;99072.38;;;36.65;26.17
70971;BME280;58632;51.718;19.446;2022-07-01T12:13:57;99074.19;;;36.69;26.73
70971;BME280;58632;51.718;19.446;2022-07-01T12:16:24;99066.65;;;36.82;28.56
70971;BME280;58632;51.718;19.446;2022-07-01T12:18:59;99082.83;;;36.92;27.68
70971;BME280;58632;51.718;19.446;2022-07-01T12:21:29;99077.41;;;36.88;27.14
70971;BME280;58632;51.718;19.446;2022-07-01T12:26:53;99070.70;;;36.69;26.55
70971;BME280;58632;51.718;19.446;2022-07-01T12:29:51;99063.41;;;36.57;26.76
70971;BME280;58632;51.718;19.446;2022-07-01T12:32:05;99068.86;;;36.49;25.58
70971;BME280;58632;51.718;19.446;2022-07-01T12:35:00;99071.58;;;36.42;26.73
70971;BME280;58632;51.718;19.446;2022-07-01T12:37:35;99070.67;;;36.46;27.93
70971;BME280;58632;51.718;19.446;2022-07-01T12:40:08;99066.39;;;36.52;28.52
70971;BME280;58632;51.718;19.446;2022-07-01T12:42:54;99058.13;;;36.65;27.93
70971;BME280;58632;51.718;19.446;2022-07-01T12:45:25;99059.16;;;36.74;27.80
70971;BME280;58632;51.718;19.446;2022-07-01T12:47:54;99056.58;;;36.64;27.13
70971;BME280;58632;51.718;19.446;2022-07-01T12:50:26;99051.78;;;36.60;27.14
70971;BME280;58632;51.718;19.446;2022-07-01T12:53:11;99052.80;;;36.69;26.18
70971;BME280;58632;51.718;19.446;2022-07-01T12:55:48;99056.67;;;36.82;27.56
70971;BME280;58632;51.718;19.446;2022-07-01T12:58:21;99055.76;;;36.86;26.98
70971;BME280;58632;51.718;19.446;2022-07-01T13:00:53;99051.72;;;36.94;27.78
70971;BME280;58632;51.718;19.446;2022-07-01T13:03:25;99054.71;;;36.95;27.58
70971;BME280;58632;51.718;19.446;2022-07-01T13:05:54;99047.05;;;37.08;27.36
70971;BME280;58632;51.718;19.446;2022-07-01T13:08:22;99050.52;;;37.19;26.37
70971;BME280;58632;51.718;19.446;2022-07-01T13:10:50;99057.52;;;37.18;25.63
70971;BME280;58632;51.718;19.446;2022-07-01T13:13:18;99056.09;;;37.18;25.52
70971;BME280;58632;51.718;19.446;2022-07-01T13:15:45;99051.58;;;37.04;25.20
70971;BME280;58632;51.718;19.446;2022-07-01T13:18:12;99061.70;;;36.94;24.55